Time;durP1;ratioP1;P1;durP2;ratioP2;P2;SDS_P1;SDS_P2;PMS_P1;PMS_P2;Temp;Humidity;BMP_temperature;BMP_pressure;BME280_temperature;BME280_humidity;BME280_pressure;Samples;Min_cycle;Max_cycle;Signal;HPM_P1;HPM_P2
2021/04/27 00:01:40;;;;;;;3.85;1.40;;;6.10;42.40;;;;;;5025259;28;20021;-71
2021/04/27 00:04:05;;;;;;;4.00;1.60;;;6.10;42.40;;;;;;5045742;28;20437;-69
2021/04/27 00:06:31;;;;;;;2.05;1.70;;;6.00;42.30;;;;;;5041260;28;20508;-68
2021/04/27 00:08:57;;;;;;;4.20;1.90;;;5.90;42.30;;;;;;5049336;28;20053;-71
2021/04/27 00:11:22;;;;;;;2.58;1.70;;;5.90;42.50;;;;;;5048488;28;20041;-71
2021/04/27 00:13:48;;;;;;;3.90;1.67;;;5.90;42.70;;;;;;5028823;28;21625;-67
2021/04/27 00:16:14;;;;;;;2.83;1.67;;;5.90;42.90;;;;;;5046765;28;20044;-71
2021/04/27 00:18:39;;;;;;;2.13;1.80;;;5.80;42.90;;;;;;5049216;28;20333;-70
2021/04/27 00:21:05;;;;;;;2.50;1.70;;;5.80;43.00;;;;;;5030657;28;20369;-70
2021/04/27 00:23:30;;;;;;;5.53;1.50;;;5.80;43.10;;;;;;5030340;28;20021;-69
2021/04/27 00:25:56;;;;;;;3.22;1.70;;;5.80;43.10;;;;;;5047077;28;20033;-70
2021/04/27 00:28:23;;;;;;;2.35;1.50;;;5.80;43.30;;;;;;5044701;28;20378;-71
2021/04/27 00:30:50;;;;;;;3.30;1.80;;;5.80;43.40;;;;;;5048049;28;20033;-69
2021/04/27 00:33:16;;;;;;;2.13;1.75;;;5.70;43.60;;;;;;5048359;28;20641;-71
2021/04/27 00:35:41;;;;;;;2.85;1.83;;;5.70;43.70;;;;;;5048818;28;20039;-70
2021/04/27 00:38:07;;;;;;;5.00;1.75;;;5.70;43.80;;;;;;5047298;28;20018;-73
2021/04/27 00:40:33;;;;;;;2.80;1.48;;;5.70;43.70;;;;;;5048611;28;20154;-70
2021/04/27 00:42:59;;;;;;;3.08;1.95;;;5.60;43.60;;;;;;5051681;28;20032;-68
2021/04/27 00:45:29;;;;;;;4.63;2.00;;;5.60;43.80;;;;;;5050092;28;20060;-70
2021/04/27 00:47:56;;;;;;;1.63;1.50;;;5.60;43.90;;;;;;5050418;28;20036;-71
2021/04/27 00:50:33;;;;;;;4.28;1.70;;;5.60;44.00;;;;;;5052618;28;20488;-70
2021/04/27 00:53:00;;;;;;;3.65;1.60;;;5.60;44.20;;;;;;5051478;28;20035;-70
2021/04/27 00:55:26;;;;;;;2.88;1.70;;;5.50;44.10;;;;;;5047922;28;20036;-70
2021/04/27 00:57:53;;;;;;;2.50;1.80;;;5.50;44.10;;;;;;5049250;28;20222;-71
2021/04/27 01:00:22;;;;;;;3.70;1.65;;;5.40;44.30;;;;;;5051890;28;20436;-71
2021/04/27 01:02:48;;;;;;;2.05;1.85;;;5.40;44.40;;;;;;5050652;28;20117;-71
2021/04/27 01:05:19;;;;;;;4.57;1.90;;;5.40;44.60;;;;;;5049859;28;20350;-70
2021/04/27 01:07:59;;;;;;;2.47;1.90;;;5.30;44.70;;;;;;5043088;28;20028;-70
2021/04/27 01:10:33;;;;;;;2.88;1.60;;;5.30;44.90;;;;;;5052310;28;20033;-70
2021/04/27 01:13:06;;;;;;;5.32;1.77;;;5.30;44.70;;;;;;5036350;28;20123;-70
2021/04/27 01:15:33;;;;;;;3.83;1.80;;;5.30;44.80;;;;;;5049966;28;20441;-69
2021/04/27 01:18:00;;;;;;;2.70;1.67;;;5.30;44.80;;;;;;5050687;28;20112;-70
2021/04/27 01:20:41;;;;;;;3.28;1.70;;;5.30;45.00;;;;;;5033337;28;20028;-71
2021/04/27 01:23:12;;;;;;;2.03;1.58;;;5.30;45.40;;;;;;5051610;28;20083;-71
2021/04/27 01:25:49;;;;;;;3.90;1.80;;;5.30;45.20;;;;;;5030429;28;20029;-68
2021/04/27 01:28:16;;;;;;;2.47;1.50;;;5.30;45.50;;;;;;5042204;28;20479;-70
2021/04/27 01:30:42;;;;;;;2.08;1.58;;;5.20;45.30;;;;;;5047235;28;20392;-69
2021/04/27 01:33:15;;;;;;;2.13;1.92;;;5.20;45.50;;;;;;5051473;28;20029;-69
2021/04/27 01:35:41;;;;;;;3.67;1.80;;;5.10;45.50;;;;;;5049986;28;20029;-69
2021/04/27 01:38:08;;;;;;;1.90;1.45;;;5.10;45.50;;;;;;5051748;28;20028;-70
2021/04/27 01:40:33;;;;;;;1.52;1.42;;;5.10;45.50;;;;;;5051331;28;20025;-69
2021/04/27 01:43:01;;;;;;;1.95;1.73;;;5.10;45.60;;;;;;5032244;28;20025;-70
2021/04/27 01:45:28;;;;;;;3.35;1.85;;;5.10;45.80;;;;;;5033050;28;20028;-68
2021/04/27 01:47:55;;;;;;;4.00;1.80;;;5.10;45.90;;;;;;5029989;28;20348;-71
2021/04/27 01:50:22;;;;;;;3.47;2.13;;;5.10;45.90;;;;;;5050239;28;20453;-71
2021/04/27 01:52:49;;;;;;;4.30;2.00;;;5.10;45.80;;;;;;5050881;28;20036;-71
2021/04/27 01:55:16;;;;;;;5.07;1.85;;;5.00;45.90;;;;;;5049275;28;20526;-71
2021/04/27 01:57:42;;;;;;;3.85;2.10;;;5.00;46.00;;;;;;5049203;28;20143;-71
2021/04/27 02:00:11;;;;;;;2.38;1.80;;;5.00;46.10;;;;;;5050182;28;20092;-71
2021/04/27 02:02:37;;;;;;;3.42;1.80;;;4.90;46.20;;;;;;5047752;28;20469;-68
2021/04/27 02:05:04;;;;;;;3.53;1.63;;;4.90;46.20;;;;;;5049070;28;20032;-71
2021/04/27 02:07:33;;;;;;;7.35;2.00;;;4.90;46.70;;;;;;5049472;28;20117;-71
2021/04/27 02:10:04;;;;;;;1.80;1.63;;;4.90;46.30;;;;;;5031501;28;20029;-69
2021/04/27 02:12:30;;;;;;;4.18;1.80;;;4.90;46.90;;;;;;5047360;28;20049;-69
2021/04/27 02:14:56;;;;;;;2.90;1.80;;;4.80;46.40;;;;;;5048113;28;20035;-70
2021/04/27 02:17:31;;;;;;;3.47;1.80;;;4.80;46.40;;;;;;5049648;28;20017;-70
2021/04/27 02:19:57;;;;;;;2.70;1.60;;;4.80;46.70;;;;;;5050534;28;20057;-70
2021/04/27 02:22:27;;;;;;;4.40;1.80;;;4.70;46.50;;;;;;5049139;28;20029;-70
2021/04/27 02:24:54;;;;;;;2.50;1.73;;;4.70;46.60;;;;;;5049315;28;22184;-71
2021/04/27 02:27:21;;;;;;;7.03;1.90;;;4.70;46.50;;;;;;5048101;28;20031;-70
2021/04/27 02:29:47;;;;;;;2.67;1.90;;;4.60;46.60;;;;;;5048760;28;20034;-70
2021/04/27 02:32:13;;;;;;;4.07;2.00;;;4.60;46.70;;;;;;5050241;28;20112;-70
2021/04/27 02:34:39;;;;;;;3.15;1.88;;;4.60;46.70;;;;;;5047163;28;20369;-71
2021/04/27 02:37:05;;;;;;;2.03;1.52;;;4.50;46.70;;;;;;5048936;28;20036;-70
2021/04/27 02:39:31;;;;;;;3.60;1.63;;;4.50;46.80;;;;;;5050038;28;20025;-71
2021/04/27 02:41:56;;;;;;;3.08;1.80;;;4.50;46.90;;;;;;5049615;28;20032;-69
2021/04/27 02:44:22;;;;;;;2.85;1.92;;;4.50;47.00;;;;;;5047029;28;20033;-70
2021/04/27 02:46:48;;;;;;;5.05;2.13;;;4.50;47.10;;;;;;5049030;28;20100;-69
2021/04/27 02:49:14;;;;;;;1.95;1.60;;;4.50;47.10;;;;;;5049845;28;20029;-70
2021/04/27 02:51:40;;;;;;;2.25;1.60;;;4.40;47.10;;;;;;5031238;28;20099;-70
2021/04/27 02:54:07;;;;;;;3.20;1.95;;;4.40;47.20;;;;;;5046267;28;20020;-70
2021/04/27 02:56:33;;;;;;;2.70;1.75;;;4.40;47.30;;;;;;5047476;28;20499;-68
2021/04/27 02:59:00;;;;;;;3.10;1.77;;;4.40;47.40;;;;;;5028735;28;20060;-70
2021/04/27 03:01:27;;;;;;;5.25;1.80;;;4.30;47.40;;;;;;5031452;28;20075;-70
2021/04/27 03:03:53;;;;;;;3.70;2.20;;;4.30;47.50;;;;;;5047562;28;20039;-70
2021/04/27 03:06:18;;;;;;;2.03;1.67;;;4.30;47.60;;;;;;5048933;28;20033;-71
2021/04/27 03:08:44;;;;;;;6.00;2.28;;;4.30;47.70;;;;;;5047713;28;20039;-71
2021/04/27 03:11:10;;;;;;;4.57;2.53;;;4.30;47.80;;;;;;5050227;28;20025;-70
2021/04/27 03:13:35;;;;;;;3.47;2.10;;;4.30;47.80;;;;;;5047609;28;20465;-70
2021/04/27 03:16:01;;;;;;;3.95;1.92;;;4.30;47.80;;;;;;5047285;28;20017;-69
2021/04/27 03:18:27;;;;;;;2.20;1.80;;;4.30;47.80;;;;;;5025817;28;20024;-69
2021/04/27 03:20:53;;;;;;;2.83;1.83;;;4.30;47.90;;;;;;5049724;28;20658;-70
2021/04/27 03:23:21;;;;;;;3.47;1.92;;;4.30;47.90;;;;;;5041906;28;20079;-70
2021/04/27 03:25:47;;;;;;;2.10;1.85;;;4.30;47.90;;;;;;5049061;28;20033;-69
2021/04/27 03:28:12;;;;;;;3.70;2.10;;;4.20;47.90;;;;;;5030419;28;20111;-67
2021/04/27 03:30:38;;;;;;;4.05;2.40;;;4.20;48.00;;;;;;5030940;28;20035;-67
2021/04/27 03:33:04;;;;;;;4.28;2.33;;;4.20;48.00;;;;;;5046957;28;20032;-70
2021/04/27 03:35:29;;;;;;;4.20;1.73;;;4.20;48.10;;;;;;5046604;28;20029;-73
2021/04/27 03:37:56;;;;;;;3.50;1.90;;;4.20;48.20;;;;;;5048921;28;20037;-67
2021/04/27 03:40:22;;;;;;;4.82;1.95;;;4.20;48.20;;;;;;5049580;28;20029;-68
2021/04/27 03:42:47;;;;;;;4.82;1.73;;;4.20;48.30;;;;;;5036526;28;20083;-68
2021/04/27 03:45:16;;;;;;;2.83;1.85;;;4.20;48.30;;;;;;5048619;28;20401;-68
2021/04/27 03:47:42;;;;;;;3.13;1.98;;;4.20;48.50;;;;;;5030226;28;20071;-71
2021/04/27 03:50:12;;;;;;;2.38;1.75;;;4.20;48.50;;;;;;5049132;28;20036;-67
2021/04/27 03:52:38;;;;;;;3.35;2.00;;;4.20;48.60;;;;;;5031976;28;20120;-67
2021/04/27 03:55:04;;;;;;;2.67;1.88;;;4.20;48.50;;;;;;5047744;28;20447;-68
2021/04/27 03:57:30;;;;;;;3.55;1.80;;;4.20;48.60;;;;;;5024148;28;20120;-67
2021/04/27 03:59:55;;;;;;;2.35;1.80;;;4.20;48.50;;;;;;5049341;28;20064;-67
2021/04/27 04:02:21;;;;;;;4.25;1.80;;;4.20;48.50;;;;;;5048790;28;20028;-68
2021/04/27 04:04:47;;;;;;;3.13;2.00;;;4.20;48.60;;;;;;5047976;28;20435;-72
2021/04/27 04:07:12;;;;;;;4.22;2.10;;;4.20;48.60;;;;;;5048300;28;20033;-68
2021/04/27 04:09:38;;;;;;;2.75;2.30;;;4.20;48.60;;;;;;5049997;28;20473;-67
2021/04/27 04:12:07;;;;;;;2.60;2.00;;;4.10;48.50;;;;;;5043914;28;20028;-67
2021/04/27 04:14:32;;;;;;;4.22;2.10;;;4.10;48.60;;;;;;5050194;28;20477;-68
2021/04/27 04:16:58;;;;;;;2.80;1.88;;;4.00;48.50;;;;;;5034965;28;20032;-67
2021/04/27 04:19:24;;;;;;;4.05;2.40;;;4.00;48.60;;;;;;5052447;28;20124;-66
2021/04/27 04:21:49;;;;;;;2.97;1.80;;;3.90;48.70;;;;;;5052973;28;20021;-70
2021/04/27 04:24:15;;;;;;;4.30;2.08;;;3.90;48.70;;;;;;5050020;28;20071;-67
2021/04/27 04:26:40;;;;;;;2.55;2.00;;;3.90;48.70;;;;;;5047310;28;20029;-71
2021/04/27 04:29:06;;;;;;;2.63;1.75;;;3.80;48.80;;;;;;5035106;28;20064;-67
2021/04/27 04:31:32;;;;;;;4.68;1.92;;;3.90;48.90;;;;;;5053485;28;20461;-69
2021/04/27 04:33:57;;;;;;;3.22;1.95;;;3.90;48.90;;;;;;5051416;28;20017;-72
2021/04/27 04:36:24;;;;;;;3.63;1.80;;;3.80;48.90;;;;;;5053010;28;20032;-67
2021/04/27 04:38:49;;;;;;;4.93;2.10;;;3.80;48.90;;;;;;5031604;28;20106;-67
2021/04/27 04:41:15;;;;;;;6.00;2.13;;;3.80;49.00;;;;;;5052483;28;20600;-67
2021/04/27 04:43:41;;;;;;;4.32;2.05;;;3.80;49.00;;;;;;5052917;28;20033;-67
2021/04/27 04:46:06;;;;;;;4.80;2.03;;;3.80;49.00;;;;;;5051588;28;20385;-67
2021/04/27 04:48:32;;;;;;;4.28;1.92;;;3.80;49.10;;;;;;5051079;28;20025;-72
2021/04/27 04:50:58;;;;;;;3.08;1.83;;;3.80;49.10;;;;;;5035195;28;20060;-69
2021/04/27 04:53:24;;;;;;;2.67;1.63;;;3.80;49.10;;;;;;5033686;28;20481;-68
2021/04/27 04:55:49;;;;;;;3.13;2.03;;;3.80;49.10;;;;;;5038477;28;20064;-67
2021/04/27 04:58:15;;;;;;;6.00;2.28;;;3.70;49.10;;;;;;5050033;28;20029;-67
2021/04/27 05:00:40;;;;;;;7.72;2.30;;;3.80;49.20;;;;;;5052878;28;20025;-70
2021/04/27 05:03:06;;;;;;;6.38;1.80;;;3.80;49.30;;;;;;5044278;28;20056;-72
2021/04/27 05:05:32;;;;;;;2.78;1.80;;;3.70;49.40;;;;;;5050828;28;20098;-67
2021/04/27 05:08:09;;;;;;;5.78;1.90;;;3.80;49.50;;;;;;5055138;28;20107;-67
2021/04/27 05:10:35;;;;;;;3.17;1.95;;;3.80;49.50;;;;;;5042073;28;20033;-71
2021/04/27 05:13:01;;;;;;;2.83;2.00;;;3.80;49.50;;;;;;5069769;28;20061;-69
2021/04/27 05:15:27;;;;;;;1.83;1.73;;;3.90;49.60;;;;;;5049588;28;20098;-71
2021/04/27 05:17:52;;;;;;;3.55;1.77;;;4.00;49.70;;;;;;5051121;28;20029;-67
2021/04/27 05:20:18;;;;;;;3.42;1.92;;;4.10;49.80;;;;;;5050261;28;20462;-67
2021/04/27 05:22:45;;;;;;;5.07;1.90;;;4.10;49.80;;;;;;5051863;28;20036;-67
2021/04/27 05:25:12;;;;;;;5.57;2.00;;;4.20;49.80;;;;;;5035690;28;20108;-72
2021/04/27 05:27:38;;;;;;;3.85;2.03;;;4.20;49.80;;;;;;5031761;28;20021;-67
2021/04/27 05:30:04;;;;;;;7.80;2.38;;;4.30;49.90;;;;;;5051571;28;20059;-72
2021/04/27 05:32:30;;;;;;;5.82;1.98;;;4.40;49.80;;;;;;5052415;28;20025;-69
2021/04/27 05:34:56;;;;;;;3.22;1.90;;;4.40;49.80;;;;;;5033082;28;20029;-71
2021/04/27 05:37:22;;;;;;;4.47;1.88;;;4.50;49.90;;;;;;5051873;28;20070;-69
2021/04/27 05:39:47;;;;;;;4.72;1.75;;;4.50;49.90;;;;;;5051552;28;20033;-72
2021/04/27 05:42:13;;;;;;;5.30;1.95;;;4.60;50.00;;;;;;5051918;28;20033;-67
2021/04/27 05:44:38;;;;;;;3.95;1.85;;;4.60;49.90;;;;;;5047904;28;20029;-67
2021/04/27 05:47:04;;;;;;;6.38;2.08;;;4.70;49.80;;;;;;5047372;28;20033;-68
2021/04/27 05:49:30;;;;;;;4.50;1.92;;;4.70;49.80;;;;;;5051810;28;20497;-72
2021/04/27 05:51:55;;;;;;;3.25;2.10;;;4.80;49.90;;;;;;5033523;28;20033;-67
2021/04/27 05:54:21;;;;;;;2.67;1.73;;;4.80;49.80;;;;;;5048680;28;20033;-67
2021/04/27 05:56:47;;;;;;;2.03;1.73;;;4.90;49.70;;;;;;5061983;23;20044;-68
2021/04/27 05:59:13;;;;;;;3.58;2.00;;;5.00;49.70;;;;;;5046609;28;20029;-67
2021/04/27 06:01:39;;;;;;;5.07;2.10;;;5.10;49.70;;;;;;5043161;28;20056;-67
2021/04/27 06:04:05;;;;;;;10.65;2.17;;;5.10;49.70;;;;;;5048407;28;20079;-67
2021/04/27 06:06:34;;;;;;;6.10;2.03;;;5.20;49.60;;;;;;5033113;28;20438;-67
2021/04/27 06:09:00;;;;;;;3.10;1.92;;;5.30;49.50;;;;;;5050913;28;20025;-67
2021/04/27 06:11:26;;;;;;;4.05;2.15;;;5.40;49.50;;;;;;5050828;28;20047;-68
2021/04/27 06:13:52;;;;;;;17.10;2.20;;;5.60;49.50;;;;;;5031291;28;20028;-67
2021/04/27 06:16:17;;;;;;;2.10;1.90;;;5.70;49.40;;;;;;5051068;28;20025;-67
2021/04/27 06:18:43;;;;;;;4.22;2.10;;;5.80;49.30;;;;;;5027886;28;20575;-67
2021/04/27 06:21:08;;;;;;;5.25;2.58;;;5.90;49.10;;;;;;5049214;28;20021;-67
2021/04/27 06:23:34;;;;;;;4.13;1.80;;;6.00;49.50;;;;;;5050448;28;20021;-68
2021/04/27 06:26:00;;;;;;;2.80;2.00;;;6.10;48.90;;;;;;5048831;28;20125;-68
2021/04/27 06:28:25;;;;;;;4.32;1.95;;;6.20;48.80;;;;;;5043549;28;20029;-68
2021/04/27 06:30:51;;;;;;;7.57;1.58;;;6.30;48.70;;;;;;5028719;28;20036;-68
2021/04/27 06:33:17;;;;;;;5.10;2.33;;;6.30;48.50;;;;;;5042074;28;20083;-68
2021/04/27 06:35:43;;;;;;;2.92;1.80;;;6.40;48.50;;;;;;5043417;28;20740;-67
2021/04/27 06:38:09;;;;;;;2.25;1.85;;;6.50;48.40;;;;;;5047792;28;20016;-67
2021/04/27 06:40:35;;;;;;;2.85;2.15;;;6.60;48.30;;;;;;5048800;28;20477;-67
2021/04/27 06:43:01;;;;;;;2.75;1.83;;;6.70;48.30;;;;;;5043742;28;21173;-67
2021/04/27 06:45:27;;;;;;;2.92;1.80;;;6.80;48.30;;;;;;5045472;28;20033;-68
2021/04/27 06:47:52;;;;;;;4.43;1.98;;;6.90;48.10;;;;;;5030889;28;20083;-67
2021/04/27 06:50:19;;;;;;;5.88;2.13;;;7.10;48.10;;;;;;5050916;28;20044;-67
2021/04/27 06:52:45;;;;;;;4.82;2.20;;;7.30;47.80;;;;;;5050275;28;20029;-68
2021/04/27 06:55:12;;;;;;;3.90;2.28;;;7.40;47.80;;;;;;5045466;28;20116;-68
2021/04/27 06:57:39;;;;;;;5.60;2.53;;;7.60;47.60;;;;;;5046838;28;20552;-68
2021/04/27 07:00:07;;;;;;;2.95;1.80;;;7.80;47.40;;;;;;5028312;28;20031;-67
2021/04/27 07:02:32;;;;;;;8.07;2.30;;;8.10;47.30;;;;;;5049346;28;20395;-67
2021/04/27 07:04:58;;;;;;;9.32;2.28;;;8.30;46.90;;;;;;5038519;28;20029;-67
2021/04/27 07:07:24;;;;;;;6.13;2.05;;;8.50;46.70;;;;;;5045215;28;20025;-67
2021/04/27 07:09:49;;;;;;;3.13;2.08;;;8.70;46.60;;;;;;5047979;28;20033;-67
2021/04/27 07:12:15;;;;;;;7.07;2.28;;;8.90;46.60;;;;;;5025228;28;20032;-67
2021/04/27 07:14:41;;;;;;;3.92;2.25;;;9.20;46.30;;;;;;5031459;28;20029;-73
2021/04/27 07:17:07;;;;;;;3.60;2.10;;;9.40;46.00;;;;;;5032267;28;20025;-73
2021/04/27 07:19:33;;;;;;;4.50;2.65;;;9.50;45.90;;;;;;5032829;28;20079;-73
2021/04/27 07:21:58;;;;;;;3.65;2.13;;;9.70;45.50;;;;;;5049102;28;20035;-68
2021/04/27 07:24:25;;;;;;;3.95;1.98;;;9.90;45.40;;;;;;5044302;28;20132;-68
2021/04/27 07:26:50;;;;;;;5.32;2.92;;;10.10;45.00;;;;;;5029399;28;20435;-68
2021/04/27 07:29:17;;;;;;;4.07;2.35;;;10.50;44.70;;;;;;5049785;28;20025;-68
2021/04/27 07:31:43;;;;;;;3.25;2.28;;;11.00;43.90;;;;;;5032517;28;20355;-67
2021/04/27 07:34:09;;;;;;;4.95;2.50;;;11.50;43.00;;;;;;5046609;28;20477;-68
2021/04/27 07:36:35;;;;;;;2.58;2.33;;;12.10;42.40;;;;;;5042590;28;20037;-68
2021/04/27 07:39:04;;;;;;;4.05;2.28;;;12.80;41.40;;;;;;5046576;28;20029;-68
2021/04/27 07:41:30;;;;;;;4.85;2.70;;;13.30;40.20;;;;;;5024286;28;20061;-68
2021/04/27 07:43:55;;;;;;;4.68;2.80;;;13.80;39.90;;;;;;5042821;28;20497;-68
2021/04/27 07:46:21;;;;;;;3.72;2.75;;;14.30;39.20;;;;;;5050955;28;20032;-68
2021/04/27 07:48:47;;;;;;;12.57;2.78;;;14.80;38.80;;;;;;5052804;28;20033;-68
2021/04/27 07:51:14;;;;;;;6.45;2.88;;;15.10;38.20;;;;;;5036793;28;20021;-68
2021/04/27 07:53:40;;;;;;;4.30;2.80;;;15.40;37.50;;;;;;5034638;28;20036;-68
2021/04/27 07:56:06;;;;;;;4.60;3.22;;;15.70;37.10;;;;;;5042687;28;20060;-69
2021/04/27 07:58:32;;;;;;;5.82;3.00;;;16.00;36.60;;;;;;5048931;28;20049;-69
2021/04/27 08:00:58;;;;;;;4.50;2.65;;;16.40;36.40;;;;;;5052422;28;20029;-69
2021/04/27 08:03:23;;;;;;;8.38;3.17;;;16.90;36.20;;;;;;5028204;28;20029;-69
2021/04/27 08:05:49;;;;;;;3.88;3.05;;;17.20;34.90;;;;;;5052221;28;20132;-68
2021/04/27 08:08:15;;;;;;;6.00;2.70;;;17.50;34.60;;;;;;5047467;28;20396;-69
2021/04/27 08:10:41;;;;;;;8.32;2.70;;;17.50;34.40;;;;;;5049370;28;20032;-69
2021/04/27 08:13:07;;;;;;;7.22;3.38;;;17.60;34.50;;;;;;5030360;28;20025;-69
2021/04/27 08:15:34;;;;;;;5.10;2.72;;;17.70;34.10;;;;;;5051594;28;20090;-69
2021/04/27 08:18:01;;;;;;;5.88;3.15;;;17.70;33.90;;;;;;5030238;28;20095;-70
2021/04/27 08:20:31;;;;;;;5.55;3.30;;;17.70;34.00;;;;;;5052565;28;20710;-73
2021/04/27 08:22:58;;;;;;;5.90;3.10;;;17.90;33.90;;;;;;5048117;28;20033;-74
2021/04/27 08:25:24;;;;;;;5.28;2.92;;;18.40;33.50;;;;;;5049682;28;20027;-69
2021/04/27 08:27:50;;;;;;;5.28;2.80;;;18.90;33.00;;;;;;5031541;28;20028;-70
2021/04/27 08:30:19;;;;;;;4.20;3.05;;;19.40;32.60;;;;;;5052926;28;20033;-70
2021/04/27 08:32:44;;;;;;;4.25;3.17;;;19.80;32.00;;;;;;5051419;28;20083;-70
2021/04/27 08:35:11;;;;;;;4.88;3.15;;;20.10;31.90;;;;;;5032653;28;20033;-70
2021/04/27 08:37:38;;;;;;;4.60;3.17;;;20.50;31.60;;;;;;5035286;28;20032;-69
2021/04/27 08:40:06;;;;;;;7.88;3.60;;;20.80;31.20;;;;;;5052914;28;20013;-70
2021/04/27 08:42:34;;;;;;;6.32;3.60;;;20.90;30.80;;;;;;5034652;28;20029;-70
2021/04/27 08:45:01;;;;;;;7.85;3.80;;;21.10;30.90;;;;;;5026256;28;20096;-70
2021/04/27 08:47:27;;;;;;;5.47;3.60;;;21.20;30.50;;;;;;5039251;28;20706;-70
2021/04/27 08:49:53;;;;;;;5.57;2.83;;;21.20;30.50;;;;;;5051083;28;20070;-70
2021/04/27 08:52:19;;;;;;;6.00;3.30;;;21.10;30.70;;;;;;5051916;28;20128;-70
2021/04/27 08:54:44;;;;;;;4.78;3.30;;;21.40;30.70;;;;;;5049342;28;20028;-70
2021/04/27 08:57:12;;;;;;;7.75;3.20;;;21.90;30.40;;;;;;5052448;28;20032;-70
2021/04/27 08:59:38;;;;;;;8.93;3.60;;;22.30;30.00;;;;;;5053245;28;20030;-69
2021/04/27 09:02:03;;;;;;;6.57;3.33;;;22.60;30.00;;;;;;5048291;28;20029;-70
2021/04/27 09:04:41;;;;;;;7.07;2.95;;;22.90;29.80;;;;;;5047146;28;20382;-70
2021/04/27 09:07:09;;;;;;;5.65;2.95;;;23.10;29.70;;;;;;5045530;28;20032;-70
2021/04/27 09:09:40;;;;;;;9.27;3.83;;;23.00;29.70;;;;;;5052928;28;20442;-70
2021/04/27 09:12:07;;;;;;;4.70;3.40;;;22.70;29.50;;;;;;5034352;28;20468;-70
2021/04/27 09:14:38;;;;;;;4.47;3.13;;;22.60;30.00;;;;;;5051059;28;20457;-70
2021/04/27 09:17:06;;;;;;;6.63;3.53;;;22.70;29.70;;;;;;5051947;28;20025;-70
2021/04/27 09:19:33;;;;;;;10.13;3.40;;;22.70;29.90;;;;;;5015171;28;20041;-70
2021/04/27 09:22:13;;;;;;;6.00;3.25;;;22.60;29.80;;;;;;5015054;28;20026;-70
2021/04/27 09:24:45;;;;;;;6.05;3.55;;;22.60;29.70;;;;;;5025411;28;20028;-70
2021/04/27 09:27:11;;;;;;;;;;;22.60;29.70;;;;;;5049274;28;20017;-68
2021/04/27 09:29:43;;;;;;;5.75;3.80;;;22.60;31.00;;;;;;5032659;28;19920;-68
2021/04/27 09:32:10;;;;;;;7.97;3.90;;;22.80;30.50;;;;;;5031174;28;20033;-68
2021/04/27 09:34:38;;;;;;;4.28;3.22;;;23.10;29.80;;;;;;5029590;28;20056;-69
2021/04/27 09:37:07;;;;;;;5.45;4.03;;;23.10;29.50;;;;;;5025337;28;20031;-69
2021/04/27 09:39:36;;;;;;;5.00;3.50;;;23.20;29.40;;;;;;5041740;28;20058;-69
2021/04/27 09:42:05;;;;;;;7.28;3.70;;;23.30;29.40;;;;;;5051359;28;20052;-68
2021/04/27 09:44:39;;;;;;;7.78;3.58;;;23.10;29.00;;;;;;5029560;28;20235;-68
2021/04/27 09:47:13;;;;;;;4.10;3.47;;;22.90;29.20;;;;;;5047519;28;20072;-68
2021/04/27 09:49:38;;;;;;;12.48;3.75;;;23.00;29.30;;;;;;5033571;28;20071;-68
2021/04/27 09:52:09;;;;;;;6.28;4.18;;;22.80;29.10;;;;;;5051707;28;20047;-69
2021/04/27 09:54:54;;;;;;;6.85;3.42;;;22.70;28.90;;;;;;5043933;28;20104;-68
2021/04/27 09:57:31;;;;;;;7.25;3.85;;;22.70;29.60;;;;;;5028060;28;20520;-69
2021/04/27 10:00:22;;;;;;;7.38;3.95;;;22.60;29.50;;;;;;5051235;28;20024;-69
2021/04/27 10:02:49;;;;;;;6.55;4.40;;;22.50;29.80;;;;;;5044583;28;20021;-68
2021/04/27 10:05:15;;;;;;;10.80;3.88;;;22.30;29.70;;;;;;5048676;28;20039;-68
2021/04/27 10:07:41;;;;;;;4.80;4.10;;;22.20;29.80;;;;;;5046925;28;20029;-68
2021/04/27 10:10:13;;;;;;;7.90;4.00;;;22.10;29.70;;;;;;5047327;28;20496;-68
2021/04/27 10:12:40;;;;;;;8.50;4.43;;;21.80;29.90;;;;;;5033016;28;20083;-68
2021/04/27 10:15:08;;;;;;;7.82;4.43;;;21.70;29.50;;;;;;5031694;28;20029;-68
2021/04/27 10:17:34;;;;;;;7.40;3.75;;;21.50;29.80;;;;;;5043685;28;20044;-68
2021/04/27 10:20:02;;;;;;;9.23;4.53;;;21.50;30.20;;;;;;5048016;28;20086;-67
2021/04/27 10:22:28;;;;;;;5.05;3.95;;;21.50;30.00;;;;;;5048095;28;20056;-67
2021/04/27 10:24:56;;;;;;;8.23;4.78;;;21.50;30.20;;;;;;5044617;28;20110;-66
2021/04/27 10:27:27;;;;;;;5.10;3.88;;;21.40;30.00;;;;;;5031840;28;20178;-67
2021/04/27 10:29:57;;;;;;;6.68;4.47;;;21.40;29.80;;;;;;5050123;28;20060;-68
2021/04/27 10:32:25;;;;;;;8.50;4.43;;;21.40;29.60;;;;;;5015917;28;20025;-68
2021/04/27 10:34:57;;;;;;;5.53;4.20;;;21.10;29.50;;;;;;5044216;28;20032;-69
2021/04/27 10:37:24;;;;;;;9.43;4.45;;;20.90;29.80;;;;;;5031713;28;20555;-68
2021/04/27 10:39:50;;;;;;;5.35;4.22;;;20.90;29.60;;;;;;5049682;28;20036;-70
2021/04/27 10:42:30;;;;;;;8.85;4.93;;;20.60;29.40;;;;;;5015712;28;20052;-69
2021/04/27 10:44:57;;;;;;;6.25;4.35;;;20.40;29.80;;;;;;5049186;28;20021;-69
2021/04/27 10:47:24;;;;;;;7.72;4.90;;;20.40;30.00;;;;;;5031035;28;20029;-68
2021/04/27 10:49:53;;;;;;;7.55;5.05;;;20.50;29.80;;;;;;5051027;28;20029;-69
2021/04/27 10:52:34;;;;;;;10.10;4.63;;;20.30;29.50;;;;;;5038067;28;20435;-69
2021/04/27 10:55:29;;;;;;;7.03;4.00;;;20.20;29.70;;;;;;5049709;28;20033;-68
2021/04/27 10:57:57;;;;;;;7.30;4.20;;;20.10;29.70;;;;;;5032146;28;20412;-69
2021/04/27 11:00:39;;;;;;;10.20;4.35;;;20.10;29.80;;;;;;5032748;28;20075;-69
2021/04/27 11:03:16;;;;;;;5.38;4.28;;;20.10;29.80;;;;;;5032094;28;20439;-68
2021/04/27 11:06:05;;;;;;;12.40;4.97;;;20.10;29.90;;;;;;5049627;28;20125;-69
2021/04/27 11:08:50;;;;;;;5.10;3.88;;;20.00;30.20;;;;;;5043755;28;20071;-69
2021/04/27 11:11:28;;;;;;;11.45;4.70;;;20.00;29.90;;;;;;5047768;28;20108;-70
2021/04/27 11:14:12;;;;;;;6.65;4.35;;;20.10;30.00;;;;;;5046520;28;20113;-68
2021/04/27 11:16:39;;;;;;;10.63;4.97;;;20.10;29.80;;;;;;5049220;28;20367;-70
2021/04/27 11:19:20;;;;;;;10.95;5.60;;;20.00;29.90;;;;;;5048629;28;20489;-69
2021/04/27 11:21:51;;;;;;;7.13;4.78;;;19.90;29.60;;;;;;5048552;28;20064;-69
2021/04/27 11:24:33;;;;;;;7.75;4.38;;;19.80;30.00;;;;;;5043489;28;20028;-69
2021/04/27 11:27:00;;;;;;;6.53;4.63;;;19.80;29.90;;;;;;5030456;28;20039;-69
2021/04/27 11:29:29;;;;;;;6.20;4.38;;;19.70;30.00;;;;;;5048586;28;20029;-70
2021/04/27 11:32:03;;;;;;;7.85;4.28;;;19.70;30.40;;;;;;5046973;28;20482;-69
2021/04/27 11:34:31;;;;;;;6.65;4.57;;;19.60;29.70;;;;;;5029500;28;20496;-69
2021/04/27 11:36:59;;;;;;;7.20;4.32;;;19.40;29.70;;;;;;5027570;28;20495;-69
2021/04/27 11:39:27;;;;;;;8.95;4.68;;;19.30;29.90;;;;;;5046228;28;20035;-69
2021/04/27 11:42:03;;;;;;;6.68;4.43;;;19.40;30.00;;;;;;5047618;28;20056;-68
2021/04/27 11:44:30;;;;;;;9.02;4.53;;;19.40;29.90;;;;;;5029304;28;20033;-69
2021/04/27 11:47:07;;;;;;;10.38;4.88;;;19.30;29.80;;;;;;5048644;28;20396;-69
2021/04/27 11:50:01;;;;;;;6.93;4.68;;;19.30;29.90;;;;;;5030833;28;20501;-69
2021/04/27 11:52:49;;;;;;;6.55;4.20;;;19.40;29.70;;;;;;5049597;28;20029;-69
2021/04/27 11:55:29;;;;;;;7.28;4.40;;;19.40;29.80;;;;;;5030705;28;20036;-69
2021/04/27 11:58:08;;;;;;;7.82;4.68;;;19.60;30.00;;;;;;5054730;23;20079;-69
2021/04/27 12:00:39;;;;;;;9.02;4.60;;;19.60;30.10;;;;;;5038106;28;20025;-69
2021/04/27 12:03:26;;;;;;;6.18;4.70;;;19.70;30.20;;;;;;5049050;28;20025;-67
2021/04/27 12:06:19;;;;;;;6.13;4.43;;;19.80;30.00;;;;;;5047762;28;20129;-67
2021/04/27 12:08:49;;;;;;;6.82;4.22;;;19.80;30.00;;;;;;5049398;28;20404;-67
2021/04/27 12:11:34;;;;;;;9.88;4.82;;;19.80;30.00;;;;;;5049444;28;20025;-67
2021/04/27 12:14:16;;;;;;;8.80;5.03;;;19.90;30.10;;;;;;5047837;28;20039;-67
2021/04/27 12:16:43;;;;;;;8.30;5.43;;;19.90;30.00;;;;;;5048851;28;20469;-68
2021/04/27 12:19:11;;;;;;;8.00;4.32;;;19.90;29.80;;;;;;5046243;28;20104;-67
2021/04/27 12:21:45;;;;;;;8.18;4.90;;;19.80;29.70;;;;;;5048366;28;20021;-67
2021/04/27 12:24:14;;;;;;;5.72;4.55;;;19.60;29.70;;;;;;5047887;28;20107;-67
2021/04/27 12:26:59;;;;;;;9.48;4.95;;;19.60;30.00;;;;;;5048677;28;20037;-67
2021/04/27 12:29:33;;;;;;;9.25;4.75;;;19.60;30.20;;;;;;5046933;28;20055;-67
2021/04/27 12:32:13;;;;;;;5.68;4.20;;;19.70;30.50;;;;;;5052316;28;20058;-67
2021/04/27 12:35:01;;;;;;;5.93;4.10;;;19.90;30.30;;;;;;5051268;28;20143;-67
2021/04/27 12:37:30;;;;;;;6.25;4.55;;;20.00;30.00;;;;;;5052146;28;20021;-68
2021/04/27 12:39:57;;;;;;;6.00;4.47;;;20.00;29.70;;;;;;5052949;28;20477;-67
2021/04/27 12:42:26;;;;;;;7.20;4.28;;;19.90;29.80;;;;;;5051677;28;20128;-68
2021/04/27 12:44:57;;;;;;;7.05;4.60;;;19.90;29.90;;;;;;5051626;28;20033;-67
2021/04/27 12:47:28;;;;;;;9.35;5.07;;;19.90;29.80;;;;;;5051851;28;20033;-67
2021/04/27 12:50:01;;;;;;;10.07;4.55;;;19.90;29.90;;;;;;5051212;28;20057;-68
2021/04/27 12:52:28;;;;;;;7.10;4.40;;;19.90;30.00;;;;;;5052926;28;20029;-67
2021/04/27 12:55:01;;;;;;;8.65;4.70;;;19.90;30.00;;;;;;5051373;28;20475;-67
2021/04/27 12:57:28;;;;;;;6.55;4.60;;;19.90;29.90;;;;;;5054502;28;20103;-67
2021/04/27 13:00:10;;;;;;;6.25;4.65;;;19.90;30.00;;;;;;5052329;28;20029;-67